CheckWX is a tool to help pilots better visualize weather data.  It is not intended as a substitute for an official pre-flight weather briefing.

21:55:02 UTC

DTTF METAR
Gafsa Ksar International Airport Airport
Gafsa, Tunisia
Current

55 mins ago

DTTF 102100Z 14005KT 070V160 28/19 Q1015
Observed
Jul-10 @ 21:00 UTC
Wind
  • 140° at 5 KTS
Visibility
Cloud Levels
Temperature
28°C / 82°F
Dewpoint
19°C / 66°F
Humidity
58%
Altimeter
29.97" Hg
Pressure
1014.92 hPa
Previous

2 hours ago

DTTF 102000Z 16013KT 28/19 Q1015
Observed
Jul-10 @ 20:00 UTC
Wind
  • 160° at 13 KTS
Visibility
Cloud Levels
Temperature
28°C / 82°F
Dewpoint
19°C / 66°F
Humidity
58%
Altimeter
29.97" Hg
Pressure
1014.92 hPa
Previous

3 hours ago

DTTF 101900Z 17014KT 31/18 Q1014
Observed
Jul-10 @ 19:00 UTC
Wind
  • 170° at 14 KTS
Visibility
Cloud Levels
Temperature
31°C / 88°F
Dewpoint
18°C / 64°F
Humidity
46%
Altimeter
29.94" Hg
Pressure
1013.92 hPa